sensor_id;sensor_type;location;lat;lon;timestamp;temperature;humidity
15143;DHT22;7672;50.834;6.286;2023-08-07T00:02:38;15.50;99.90
15143;DHT22;7672;50.834;6.286;2023-08-07T00:05:15;15.40;99.90
15143;DHT22;7672;50.834;6.286;2023-08-07T00:08:04;15.50;99.90
15143;DHT22;7672;50.834;6.286;2023-08-07T00:10:34;15.80;99.90
15143;DHT22;7672;50.834;6.286;2023-08-07T00:13:03;15.50;99.90
15143;DHT22;7672;50.834;6.286;2023-08-07T00:16:27;16.00;99.90
15143;DHT22;7672;50.834;6.286;2023-08-07T00:19:05;16.00;99.90
15143;DHT22;7672;50.834;6.286;2023-08-07T00:21:36;15.90;99.90
15143;DHT22;7672;50.834;6.286;2023-08-07T00:24:17;15.70;99.90
15143;DHT22;7672;50.834;6.286;2023-08-07T00:26:58;15.50;99.90
15143;DHT22;7672;50.834;6.286;2023-08-07T00:29:33;15.50;99.90
15143;DHT22;7672;50.834;6.286;2023-08-07T00:32:16;15.80;99.90
15143;DHT22;7672;50.834;6.286;2023-08-07T00:34:52;16.10;99.90
15143;DHT22;7672;50.834;6.286;2023-08-07T00:37:34;15.50;99.90
15143;DHT22;7672;50.834;6.286;2023-08-07T00:40:11;15.80;99.90
15143;DHT22;7672;50.834;6.286;2023-08-07T00:42:46;15.50;99.90
15143;DHT22;7672;50.834;6.286;2023-08-07T00:45:17;16.00;99.90
15143;DHT22;7672;50.834;6.286;2023-08-07T00:47:58;15.50;99.90
15143;DHT22;7672;50.834;6.286;2023-08-07T00:50:28;15.60;99.90
15143;DHT22;7672;50.834;6.286;2023-08-07T00:53:40;15.50;99.90
15143;DHT22;7672;50.834;6.286;2023-08-07T00:56:20;15.60;99.90
15143;DHT22;7672;50.834;6.286;2023-08-07T00:58:49;15.90;99.90
15143;DHT22;7672;50.834;6.286;2023-08-07T01:01:27;15.90;99.90
15143;DHT22;7672;50.834;6.286;2023-08-07T01:04:07;14.70;99.90
15143;DHT22;7672;50.834;6.286;2023-08-07T01:06:38;15.50;99.90
15143;DHT22;7672;50.834;6.286;2023-08-07T01:09:06;16.10;99.90
15143;DHT22;7672;50.834;6.286;2023-08-07T01:11:39;15.50;99.90
15143;DHT22;7672;50.834;6.286;2023-08-07T01:14:40;15.60;99.90
15143;DHT22;7672;50.834;6.286;2023-08-07T01:17:26;15.50;99.90
15143;DHT22;7672;50.834;6.286;2023-08-07T01:19:55;15.50;99.90
15143;DHT22;7672;50.834;6.286;2023-08-07T01:22:33;16.20;99.90
15143;DHT22;7672;50.834;6.286;2023-08-07T01:25:25;16.00;99.90
15143;DHT22;7672;50.834;6.286;2023-08-07T01:31:07;15.50;99.90
15143;DHT22;7672;50.834;6.286;2023-08-07T01:33:57;16.20;99.90
15143;DHT22;7672;50.834;6.286;2023-08-07T01:36:33;15.50;99.90
15143;DHT22;7672;50.834;6.286;2023-08-07T01:39:04;15.40;99.90
15143;DHT22;7672;50.834;6.286;2023-08-07T01:41:35;15.00;99.90
15143;DHT22;7672;50.834;6.286;2023-08-07T01:44:03;15.50;99.90
15143;DHT22;7672;50.834;6.286;2023-08-07T01:46:33;15.50;99.90
15143;DHT22;7672;50.834;6.286;2023-08-07T01:49:22;16.00;99.90
15143;DHT22;7672;50.834;6.286;2023-08-07T01:52:07;15.10;99.90
15143;DHT22;7672;50.834;6.286;2023-08-07T01:54:36;15.50;99.90
15143;DHT22;7672;50.834;6.286;2023-08-07T01:57:04;15.80;99.90
15143;DHT22;7672;50.834;6.286;2023-08-07T01:59:31;15.60;99.90
15143;DHT22;7672;50.834;6.286;2023-08-07T02:02:07;15.50;99.90
15143;DHT22;7672;50.834;6.286;2023-08-07T02:04:42;15.50;99.90
15143;DHT22;7672;50.834;6.286;2023-08-07T02:07:10;15.80;99.90
15143;DHT22;7672;50.834;6.286;2023-08-07T02:09:37;15.50;99.90
15143;DHT22;7672;50.834;6.286;2023-08-07T02:12:11;15.60;99.90
15143;DHT22;7672;50.834;6.286;2023-08-07T02:14:39;15.60;99.90
15143;DHT22;7672;50.834;6.286;2023-08-07T02:17:06;16.10;99.90
15143;DHT22;7672;50.834;6.286;2023-08-07T02:19:34;15.60;99.90
15143;DHT22;7672;50.834;6.286;2023-08-07T02:22:03;15.90;99.90
15143;DHT22;7672;50.834;6.286;2023-08-07T02:24:34;15.60;99.90
15143;DHT22;7672;50.834;6.286;2023-08-07T02:27:08;16.20;99.90
15143;DHT22;7672;50.834;6.286;2023-08-07T02:32:38;15.60;99.90
15143;DHT22;7672;50.834;6.286;2023-08-07T02:35:08;15.60;99.90
15143;DHT22;7672;50.834;6.286;2023-08-07T02:37:48;15.90;99.90
15143;DHT22;7672;50.834;6.286;2023-08-07T02:40:15;15.70;99.90
15143;DHT22;7672;50.834;6.286;2023-08-07T02:42:44;15.60;99.90
15143;DHT22;7672;50.834;6.286;2023-08-07T02:45:11;15.60;99.90
15143;DHT22;7672;50.834;6.286;2023-08-07T02:47:52;15.70;99.90
15143;DHT22;7672;50.834;6.286;2023-08-07T02:53:22;16.00;99.90
15143;DHT22;7672;50.834;6.286;2023-08-07T02:55:52;15.80;99.90
15143;DHT22;7672;50.834;6.286;2023-08-07T02:58:53;15.50;99.90
15143;DHT22;7672;50.834;6.286;2023-08-07T03:01:37;15.80;99.90
15143;DHT22;7672;50.834;6.286;2023-08-07T03:04:29;15.80;99.90
15143;DHT22;7672;50.834;6.286;2023-08-07T03:06:56;15.90;99.90
15143;DHT22;7672;50.834;6.286;2023-08-07T03:09:25;15.70;99.90
15143;DHT22;7672;50.834;6.286;2023-08-07T03:11:52;15.80;99.90
15143;DHT22;7672;50.834;6.286;2023-08-07T03:14:20;16.00;99.90
15143;DHT22;7672;50.834;6.286;2023-08-07T03:16:47;15.50;99.90
15143;DHT22;7672;50.834;6.286;2023-08-07T03:19:14;15.50;99.90
15143;DHT22;7672;50.834;6.286;2023-08-07T03:21:41;15.60;99.90
15143;DHT22;7672;50.834;6.286;2023-08-07T03:24:08;15.40;99.90
15143;DHT22;7672;50.834;6.286;2023-08-07T03:26:39;15.40;99.90
15143;DHT22;7672;50.834;6.286;2023-08-07T03:29:06;15.40;99.90
15143;DHT22;7672;50.834;6.286;2023-08-07T03:31:33;15.60;99.90
15143;DHT22;7672;50.834;6.286;2023-08-07T03:34:01;15.40;99.90
15143;DHT22;7672;50.834;6.286;2023-08-07T03:36:30;15.40;99.90
15143;DHT22;7672;50.834;6.286;2023-08-07T03:38:57;15.40;99.90
15143;DHT22;7672;50.834;6.286;2023-08-07T03:41:27;15.40;99.90
15143;DHT22;7672;50.834;6.286;2023-08-07T03:43:55;15.40;99.90
15143;DHT22;7672;50.834;6.286;2023-08-07T03:46:23;15.30;99.90
15143;DHT22;7672;50.834;6.286;2023-08-07T03:48:50;15.40;99.90
15143;DHT22;7672;50.834;6.286;2023-08-07T03:51:19;15.40;99.90
15143;DHT22;7672;50.834;6.286;2023-08-07T03:53:49;15.40;99.90
15143;DHT22;7672;50.834;6.286;2023-08-07T03:56:16;15.30;99.90
15143;DHT22;7672;50.834;6.286;2023-08-07T03:58:44;15.30;99.90
15143;DHT22;7672;50.834;6.286;2023-08-07T04:01:12;15.30;99.90
15143;DHT22;7672;50.834;6.286;2023-08-07T04:03:40;15.30;99.90
15143;DHT22;7672;50.834;6.286;2023-08-07T04:06:07;15.30;99.90
15143;DHT22;7672;50.834;6.286;2023-08-07T04:08:34;15.30;99.90
15143;DHT22;7672;50.834;6.286;2023-08-07T04:11:05;15.30;99.90
15143;DHT22;7672;50.834;6.286;2023-08-07T04:13:34;15.30;99.90
15143;DHT22;7672;50.834;6.286;2023-08-07T04:16:02;15.30;99.90
15143;DHT22;7672;50.834;6.286;2023-08-07T04:18:32;15.30;99.90
15143;DHT22;7672;50.834;6.286;2023-08-07T04:21:01;15.30;99.90
15143;DHT22;7672;50.834;6.286;2023-08-07T04:23:31;15.30;99.90
15143;DHT22;7672;50.834;6.286;2023-08-07T04:25:59;15.30;99.90
15143;DHT22;7672;50.834;6.286;2023-08-07T04:28:28;15.30;99.90
15143;DHT22;7672;50.834;6.286;2023-08-07T04:30:56;15.30;99.90
15143;DHT22;7672;50.834;6.286;2023-08-07T04:33:23;15.50;99.90
15143;DHT22;7672;50.834;6.286;2023-08-07T04:35:50;15.30;99.90
15143;DHT22;7672;50.834;6.286;2023-08-07T04:38:17;15.30;99.90
15143;DHT22;7672;50.834;6.286;2023-08-07T04:40:48;15.30;99.90
15143;DHT22;7672;50.834;6.286;2023-08-07T04:43:17;15.40;99.90
15143;DHT22;7672;50.834;6.286;2023-08-07T04:45:47;15.30;99.90
15143;DHT22;7672;50.834;6.286;2023-08-07T04:48:15;15.30;99.90
15143;DHT22;7672;50.834;6.286;2023-08-07T04:50:44;15.30;99.90
15143;DHT22;7672;50.834;6.286;2023-08-07T04:53:11;15.50;99.90
15143;DHT22;7672;50.834;6.286;2023-08-07T04:55:39;15.30;99.90
15143;DHT22;7672;50.834;6.286;2023-08-07T04:58:06;15.30;99.90
15143;DHT22;7672;50.834;6.286;2023-08-07T05:00:36;15.30;99.90
15143;DHT22;7672;50.834;6.286;2023-08-07T05:03:03;15.30;99.90
15143;DHT22;7672;50.834;6.286;2023-08-07T05:05:31;15.30;99.90
15143;DHT22;7672;50.834;6.286;2023-08-07T05:07:58;15.30;99.90
15143;DHT22;7672;50.834;6.286;2023-08-07T05:10:32;15.30;99.90
15143;DHT22;7672;50.834;6.286;2023-08-07T05:12:59;15.30;99.90
15143;DHT22;7672;50.834;6.286;2023-08-07T05:16:34;15.80;99.90
15143;DHT22;7672;50.834;6.286;2023-08-07T05:19:01;15.40;99.90
15143;DHT22;7672;50.834;6.286;2023-08-07T05:21:30;15.10;99.90
15143;DHT22;7672;50.834;6.286;2023-08-07T05:23:57;15.50;99.90
15143;DHT22;7672;50.834;6.286;2023-08-07T05:26:41;15.50;99.90
15143;DHT22;7672;50.834;6.286;2023-08-07T05:29:22;15.40;99.90
15143;DHT22;7672;50.834;6.286;2023-08-07T05:31:52;15.40;99.90
15143;DHT22;7672;50.834;6.286;2023-08-07T05:34:19;15.90;99.90
15143;DHT22;7672;50.834;6.286;2023-08-07T05:36:46;15.40;99.90
15143;DHT22;7672;50.834;6.286;2023-08-07T05:39:15;15.40;99.90
15143;DHT22;7672;50.834;6.286;2023-08-07T05:41:43;15.50;99.90
15143;DHT22;7672;50.834;6.286;2023-08-07T05:44:11;15.50;99.90
15143;DHT22;7672;50.834;6.286;2023-08-07T05:46:39;15.50;99.90
15143;DHT22;7672;50.834;6.286;2023-08-07T05:49:06;15.50;99.90
15143;DHT22;7672;50.834;6.286;2023-08-07T05:51:33;16.00;99.90
15143;DHT22;7672;50.834;6.286;2023-08-07T05:54:00;15.60;99.90
15143;DHT22;7672;50.834;6.286;2023-08-07T05:56:27;15.60;99.90
15143;DHT22;7672;50.834;6.286;2023-08-07T05:58:54;15.60;99.90
15143;DHT22;7672;50.834;6.286;2023-08-07T06:01:21;15.70;99.90
15143;DHT22;7672;50.834;6.286;2023-08-07T06:03:49;15.60;99.90
15143;DHT22;7672;50.834;6.286;2023-08-07T06:06:16;15.60;99.90
15143;DHT22;7672;50.834;6.286;2023-08-07T06:08:43;15.70;99.90
15143;DHT22;7672;50.834;6.286;2023-08-07T06:11:10;15.70;99.90
15143;DHT22;7672;50.834;6.286;2023-08-07T06:13:37;15.70;99.90
15143;DHT22;7672;50.834;6.286;2023-08-07T06:16:04;15.70;99.90
15143;DHT22;7672;50.834;6.286;2023-08-07T06:18:31;15.70;99.90
15143;DHT22;7672;50.834;6.286;2023-08-07T06:20:58;15.70;99.90
15143;DHT22;7672;50.834;6.286;2023-08-07T06:23:25;16.20;99.90
15143;DHT22;7672;50.834;6.286;2023-08-07T06:25:53;15.80;99.90
15143;DHT22;7672;50.834;6.286;2023-08-07T06:28:28;15.80;99.90
15143;DHT22;7672;50.834;6.286;2023-08-07T06:31:01;16.10;99.90
15143;DHT22;7672;50.834;6.286;2023-08-07T06:33:33;15.80;99.90
15143;DHT22;7672;50.834;6.286;2023-08-07T06:36:02;15.80;99.90
15143;DHT22;7672;50.834;6.286;2023-08-07T06:38:30;15.80;99.90
15143;DHT22;7672;50.834;6.286;2023-08-07T06:40:57;15.80;99.90
15143;DHT22;7672;50.834;6.286;2023-08-07T06:43:25;15.80;99.90
15143;DHT22;7672;50.834;6.286;2023-08-07T06:45:53;15.90;99.90
15143;DHT22;7672;50.834;6.286;2023-08-07T06:48:21;15.90;99.90
15143;DHT22;7672;50.834;6.286;2023-08-07T06:50:49;15.90;99.90
15143;DHT22;7672;50.834;6.286;2023-08-07T06:53:17;15.90;99.90
15143;DHT22;7672;50.834;6.286;2023-08-07T06:55:45;16.00;99.90
15143;DHT22;7672;50.834;6.286;2023-08-07T06:58:12;16.10;99.90
15143;DHT22;7672;50.834;6.286;2023-08-07T07:00:39;16.10;99.90
15143;DHT22;7672;50.834;6.286;2023-08-07T07:03:06;16.20;99.90
15143;DHT22;7672;50.834;6.286;2023-08-07T07:05:36;16.20;99.90
15143;DHT22;7672;50.834;6.286;2023-08-07T07:08:03;16.20;99.90
15143;DHT22;7672;50.834;6.286;2023-08-07T07:10:31;16.40;99.90
15143;DHT22;7672;50.834;6.286;2023-08-07T07:12:58;16.30;99.90
15143;DHT22;7672;50.834;6.286;2023-08-07T07:15:26;16.30;99.90
15143;DHT22;7672;50.834;6.286;2023-08-07T07:17:53;16.40;99.90
15143;DHT22;7672;50.834;6.286;2023-08-07T07:20:20;16.50;99.90
15143;DHT22;7672;50.834;6.286;2023-08-07T07:22:47;16.50;99.90
15143;DHT22;7672;50.834;6.286;2023-08-07T07:25:14;16.50;99.90
15143;DHT22;7672;50.834;6.286;2023-08-07T07:27:41;16.60;99.90
15143;DHT22;7672;50.834;6.286;2023-08-07T07:30:09;16.70;99.90
15143;DHT22;7672;50.834;6.286;2023-08-07T07:32:36;16.70;99.90
15143;DHT22;7672;50.834;6.286;2023-08-07T07:35:04;16.70;99.90
15143;DHT22;7672;50.834;6.286;2023-08-07T07:37:31;16.80;99.90
15143;DHT22;7672;50.834;6.286;2023-08-07T07:39:58;16.90;99.90
15143;DHT22;7672;50.834;6.286;2023-08-07T07:42:26;17.00;99.90
15143;DHT22;7672;50.834;6.286;2023-08-07T07:44:53;17.00;99.90
15143;DHT22;7672;50.834;6.286;2023-08-07T07:47:20;17.10;99.90
15143;DHT22;7672;50.834;6.286;2023-08-07T07:49:47;17.20;99.90
15143;DHT22;7672;50.834;6.286;2023-08-07T07:52:15;17.20;99.90
15143;DHT22;7672;50.834;6.286;2023-08-07T07:54:42;17.30;99.90
15143;DHT22;7672;50.834;6.286;2023-08-07T07:57:09;17.40;99.90
15143;DHT22;7672;50.834;6.286;2023-08-07T07:59:36;17.40;99.90
15143;DHT22;7672;50.834;6.286;2023-08-07T08:02:04;17.60;99.90
15143;DHT22;7672;50.834;6.286;2023-08-07T08:04:31;17.60;99.90
15143;DHT22;7672;50.834;6.286;2023-08-07T08:06:58;17.80;99.90
15143;DHT22;7672;50.834;6.286;2023-08-07T08:09:26;17.80;99.90
15143;DHT22;7672;50.834;6.286;2023-08-07T08:11:54;17.40;99.90
15143;DHT22;7672;50.834;6.286;2023-08-07T08:14:21;17.80;99.90
15143;DHT22;7672;50.834;6.286;2023-08-07T08:16:48;17.90;99.90
15143;DHT22;7672;50.834;6.286;2023-08-07T08:19:16;18.40;99.90
15143;DHT22;7672;50.834;6.286;2023-08-07T08:21:43;18.30;99.90
15143;DHT22;7672;50.834;6.286;2023-08-07T08:24:10;18.20;99.90
15143;DHT22;7672;50.834;6.286;2023-08-07T08:26:38;18.20;99.90
15143;DHT22;7672;50.834;6.286;2023-08-07T08:29:06;18.60;99.90
15143;DHT22;7672;50.834;6.286;2023-08-07T08:31:34;18.40;99.90
15143;DHT22;7672;50.834;6.286;2023-08-07T08:34:02;19.10;99.90
15143;DHT22;7672;50.834;6.286;2023-08-07T08:36:30;18.90;99.90
15143;DHT22;7672;50.834;6.286;2023-08-07T08:38:57;18.80;99.90
15143;DHT22;7672;50.834;6.286;2023-08-07T08:41:25;19.00;99.90
15143;DHT22;7672;50.834;6.286;2023-08-07T08:43:54;19.30;99.90
15143;DHT22;7672;50.834;6.286;2023-08-07T08:46:27;19.30;99.90
15143;DHT22;7672;50.834;6.286;2023-08-07T08:48:57;19.50;99.90
15143;DHT22;7672;50.834;6.286;2023-08-07T08:51:27;20.00;99.90
15143;DHT22;7672;50.834;6.286;2023-08-07T08:53:56;19.90;99.90
15143;DHT22;7672;50.834;6.286;2023-08-07T08:56:24;20.60;99.90
15143;DHT22;7672;50.834;6.286;2023-08-07T08:58:52;20.30;99.90
15143;DHT22;7672;50.834;6.286;2023-08-07T09:01:24;20.40;99.90
15143;DHT22;7672;50.834;6.286;2023-08-07T09:04:02;20.90;99.90
15143;DHT22;7672;50.834;6.286;2023-08-07T09:06:32;20.90;99.90
15143;DHT22;7672;50.834;6.286;2023-08-07T09:09:03;21.60;99.90
15143;DHT22;7672;50.834;6.286;2023-08-07T09:11:30;21.50;99.90
15143;DHT22;7672;50.834;6.286;2023-08-07T09:14:02;21.60;99.90
15143;DHT22;7672;50.834;6.286;2023-08-07T09:16:30;22.10;99.90
15143;DHT22;7672;50.834;6.286;2023-08-07T09:18:58;21.80;99.90
15143;DHT22;7672;50.834;6.286;2023-08-07T09:21:37;22.20;99.90
15143;DHT22;7672;50.834;6.286;2023-08-07T09:24:05;22.30;99.90
15143;DHT22;7672;50.834;6.286;2023-08-07T09:26:33;23.00;99.90
15143;DHT22;7672;50.834;6.286;2023-08-07T09:29:01;23.20;99.90
15143;DHT22;7672;50.834;6.286;2023-08-07T09:31:29;23.40;99.90
15143;DHT22;7672;50.834;6.286;2023-08-07T09:34:06;23.60;99.90
15143;DHT22;7672;50.834;6.286;2023-08-07T09:36:34;23.70;99.90
15143;DHT22;7672;50.834;6.286;2023-08-07T09:39:02;23.70;99.90
15143;DHT22;7672;50.834;6.286;2023-08-07T09:41:31;24.00;99.90
15143;DHT22;7672;50.834;6.286;2023-08-07T09:43:58;23.70;99.90
15143;DHT22;7672;50.834;6.286;2023-08-07T09:46:41;23.50;99.90
15143;DHT22;7672;50.834;6.286;2023-08-07T09:49:09;23.40;99.90
15143;DHT22;7672;50.834;6.286;2023-08-07T09:51:44;23.20;99.90
15143;DHT22;7672;50.834;6.286;2023-08-07T09:54:13;23.10;99.90
15143;DHT22;7672;50.834;6.286;2023-08-07T09:56:40;23.40;99.90
15143;DHT22;7672;50.834;6.286;2023-08-07T09:59:08;23.50;99.90
15143;DHT22;7672;50.834;6.286;2023-08-07T10:01:38;23.70;99.90
15143;DHT22;7672;50.834;6.286;2023-08-07T10:04:07;23.80;99.90
15143;DHT22;7672;50.834;6.286;2023-08-07T10:06:35;24.00;99.90
15143;DHT22;7672;50.834;6.286;2023-08-07T10:09:02;24.20;99.90
15143;DHT22;7672;50.834;6.286;2023-08-07T10:11:31;24.60;99.90
15143;DHT22;7672;50.834;6.286;2023-08-07T10:13:59;24.60;99.90
15143;DHT22;7672;50.834;6.286;2023-08-07T10:16:27;24.90;99.90
15143;DHT22;7672;50.834;6.286;2023-08-07T10:18:55;25.10;99.90
15143;DHT22;7672;50.834;6.286;2023-08-07T10:21:23;25.20;99.90
15143;DHT22;7672;50.834;6.286;2023-08-07T10:23:53;25.20;99.90
15143;DHT22;7672;50.834;6.286;2023-08-07T10:26:23;25.30;99.90
15143;DHT22;7672;50.834;6.286;2023-08-07T10:28:52;25.20;99.90
15143;DHT22;7672;50.834;6.286;2023-08-07T10:31:22;25.00;99.90
15143;DHT22;7672;50.834;6.286;2023-08-07T10:33:50;25.00;99.90
15143;DHT22;7672;50.834;6.286;2023-08-07T10:36:19;25.00;99.90
15143;DHT22;7672;50.834;6.286;2023-08-07T10:39:12;25.00;99.90
15143;DHT22;7672;50.834;6.286;2023-08-07T10:41:57;25.00;99.90
15143;DHT22;7672;50.834;6.286;2023-08-07T10:44:27;25.10;99.90
15143;DHT22;7672;50.834;6.286;2023-08-07T10:46:58;25.30;99.90
15143;DHT22;7672;50.834;6.286;2023-08-07T10:49:35;25.60;99.90
15143;DHT22;7672;50.834;6.286;2023-08-07T10:52:13;26.00;99.90
15143;DHT22;7672;50.834;6.286;2023-08-07T10:54:47;26.30;99.90
15143;DHT22;7672;50.834;6.286;2023-08-07T10:57:18;26.80;99.90
15143;DHT22;7672;50.834;6.286;2023-08-07T11:02:29;27.50;99.90
15143;DHT22;7672;50.834;6.286;2023-08-07T11:04:58;27.90;99.90
15143;DHT22;7672;50.834;6.286;2023-08-07T11:07:27;28.00;99.90
15143;DHT22;7672;50.834;6.286;2023-08-07T11:09:57;28.10;99.90
15143;DHT22;7672;50.834;6.286;2023-08-07T11:12:26;28.20;99.90
15143;DHT22;7672;50.834;6.286;2023-08-07T11:14:54;28.20;99.90
15143;DHT22;7672;50.834;6.286;2023-08-07T11:17:27;28.30;99.90
15143;DHT22;7672;50.834;6.286;2023-08-07T11:19:56;28.30;99.90
15143;DHT22;7672;50.834;6.286;2023-08-07T11:22:23;28.30;99.90
15143;DHT22;7672;50.834;6.286;2023-08-07T11:24:51;28.40;99.90
15143;DHT22;7672;50.834;6.286;2023-08-07T11:27:18;28.50;99.90
15143;DHT22;7672;50.834;6.286;2023-08-07T11:29:48;28.70;99.90
15143;DHT22;7672;50.834;6.286;2023-08-07T11:32:16;28.80;99.90
15143;DHT22;7672;50.834;6.286;2023-08-07T11:34:48;28.90;99.90
15143;DHT22;7672;50.834;6.286;2023-08-07T11:37:17;29.00;99.90
15143;DHT22;7672;50.834;6.286;2023-08-07T11:39:44;29.00;99.90
15143;DHT22;7672;50.834;6.286;2023-08-07T11:42:13;29.00;99.90
15143;DHT22;7672;50.834;6.286;2023-08-07T11:44:41;28.80;99.90
15143;DHT22;7672;50.834;6.286;2023-08-07T11:47:09;28.70;99.90
15143;DHT22;7672;50.834;6.286;2023-08-07T11:49:37;28.50;99.90
15143;DHT22;7672;50.834;6.286;2023-08-07T11:52:05;28.40;99.90
15143;DHT22;7672;50.834;6.286;2023-08-07T11:54:32;28.20;99.90
15143;DHT22;7672;50.834;6.286;2023-08-07T11:56:59;28.10;99.90
15143;DHT22;7672;50.834;6.286;2023-08-07T11:59:27;28.10;99.90
15143;DHT22;7672;50.834;6.286;2023-08-07T12:01:54;28.10;99.90
15143;DHT22;7672;50.834;6.286;2023-08-07T12:04:21;28.00;99.90
15143;DHT22;7672;50.834;6.286;2023-08-07T12:06:55;28.00;99.90
15143;DHT22;7672;50.834;6.286;2023-08-07T12:09:26;27.90;99.90
15143;DHT22;7672;50.834;6.286;2023-08-07T12:11:59;27.80;99.90
15143;DHT22;7672;50.834;6.286;2023-08-07T12:14:30;27.60;99.90
15143;DHT22;7672;50.834;6.286;2023-08-07T12:16:57;27.50;99.90
15143;DHT22;7672;50.834;6.286;2023-08-07T12:19:35;27.30;99.90
15143;DHT22;7672;50.834;6.286;2023-08-07T12:22:06;27.10;99.90
15143;DHT22;7672;50.834;6.286;2023-08-07T12:24:35;27.10;99.90
15143;DHT22;7672;50.834;6.286;2023-08-07T12:27:07;27.00;99.90
15143;DHT22;7672;50.834;6.286;2023-08-07T12:29:34;27.00;99.90
15143;DHT22;7672;50.834;6.286;2023-08-07T12:32:03;27.00;99.90
15143;DHT22;7672;50.834;6.286;2023-08-07T12:34:30;27.10;99.90
15143;DHT22;7672;50.834;6.286;2023-08-07T12:37:21;27.10;99.90
15143;DHT22;7672;50.834;6.286;2023-08-07T12:39:49;27.10;99.90
15143;DHT22;7672;50.834;6.286;2023-08-07T12:42:19;27.10;99.90
15143;DHT22;7672;50.834;6.286;2023-08-07T12:44:49;27.10;99.90
15143;DHT22;7672;50.834;6.286;2023-08-07T12:47:16;27.10;99.90
15143;DHT22;7672;50.834;6.286;2023-08-07T12:49:43;27.20;99.90
15143;DHT22;7672;50.834;6.286;2023-08-07T12:52:12;27.10;99.90
15143;DHT22;7672;50.834;6.286;2023-08-07T12:54:40;27.20;99.90
15143;DHT22;7672;50.834;6.286;2023-08-07T12:57:09;27.10;99.90
15143;DHT22;7672;50.834;6.286;2023-08-07T12:59:36;27.00;99.90
15143;DHT22;7672;50.834;6.286;2023-08-07T13:02:06;27.00;99.90
15143;DHT22;7672;50.834;6.286;2023-08-07T13:04:33;27.00;99.90
15143;DHT22;7672;50.834;6.286;2023-08-07T13:07:00;26.90;99.90
15143;DHT22;7672;50.834;6.286;2023-08-07T13:09:27;26.90;99.90
15143;DHT22;7672;50.834;6.286;2023-08-07T13:11:55;26.80;99.90
15143;DHT22;7672;50.834;6.286;2023-08-07T13:14:22;26.60;99.90
15143;DHT22;7672;50.834;6.286;2023-08-07T13:16:49;26.60;99.90
15143;DHT22;7672;50.834;6.286;2023-08-07T13:19:16;26.50;99.90
15143;DHT22;7672;50.834;6.286;2023-08-07T13:21:43;26.40;99.90
15143;DHT22;7672;50.834;6.286;2023-08-07T13:24:11;26.30;99.90
15143;DHT22;7672;50.834;6.286;2023-08-07T13:26:44;26.20;99.90
15143;DHT22;7672;50.834;6.286;2023-08-07T13:29:12;26.10;99.90
15143;DHT22;7672;50.834;6.286;2023-08-07T13:31:39;26.10;99.90
15143;DHT22;7672;50.834;6.286;2023-08-07T13:34:12;26.00;99.90
15143;DHT22;7672;50.834;6.286;2023-08-07T13:36:39;26.20;99.90
15143;DHT22;7672;50.834;6.286;2023-08-07T13:39:07;25.60;99.90
15143;DHT22;7672;50.834;6.286;2023-08-07T13:41:35;26.00;99.90
15143;DHT22;7672;50.834;6.286;2023-08-07T13:44:02;25.50;99.90
15143;DHT22;7672;50.834;6.286;2023-08-07T13:46:32;25.30;99.90
15143;DHT22;7672;50.834;6.286;2023-08-07T13:49:02;24.90;99.90
15143;DHT22;7672;50.834;6.286;2023-08-07T13:51:30;25.10;99.90
15143;DHT22;7672;50.834;6.286;2023-08-07T13:53:57;24.80;99.90
15143;DHT22;7672;50.834;6.286;2023-08-07T13:56:24;24.90;99.90
15143;DHT22;7672;50.834;6.286;2023-08-07T13:58:52;24.70;99.90
15143;DHT22;7672;50.834;6.286;2023-08-07T14:01:21;24.70;99.90
15143;DHT22;7672;50.834;6.286;2023-08-07T14:03:48;24.80;99.90
15143;DHT22;7672;50.834;6.286;2023-08-07T14:06:15;24.70;99.90
15143;DHT22;7672;50.834;6.286;2023-08-07T14:08:42;24.80;99.90
15143;DHT22;7672;50.834;6.286;2023-08-07T14:11:09;24.90;99.90
15143;DHT22;7672;50.834;6.286;2023-08-07T14:13:38;24.90;99.90
15143;DHT22;7672;50.834;6.286;2023-08-07T14:16:06;24.80;99.90
15143;DHT22;7672;50.834;6.286;2023-08-07T14:18:33;25.00;99.90
15143;DHT22;7672;50.834;6.286;2023-08-07T14:21:01;25.10;99.90
15143;DHT22;7672;50.834;6.286;2023-08-07T14:23:48;25.00;99.90
15143;DHT22;7672;50.834;6.286;2023-08-07T14:26:16;25.00;99.90
15143;DHT22;7672;50.834;6.286;2023-08-07T14:28:45;24.90;99.90
15143;DHT22;7672;50.834;6.286;2023-08-07T14:31:14;25.10;99.90
15143;DHT22;7672;50.834;6.286;2023-08-07T14:33:41;25.00;99.90
15143;DHT22;7672;50.834;6.286;2023-08-07T14:36:08;25.00;99.90
15143;DHT22;7672;50.834;6.286;2023-08-07T14:38:35;24.90;99.90
15143;DHT22;7672;50.834;6.286;2023-08-07T14:41:02;25.00;99.90
15143;DHT22;7672;50.834;6.286;2023-08-07T14:43:30;25.00;99.90
15143;DHT22;7672;50.834;6.286;2023-08-07T14:45:58;25.30;99.90
15143;DHT22;7672;50.834;6.286;2023-08-07T14:48:26;24.90;99.90
15143;DHT22;7672;50.834;6.286;2023-08-07T14:50:53;25.00;99.90
15143;DHT22;7672;50.834;6.286;2023-08-07T14:53:21;25.20;99.90
15143;DHT22;7672;50.834;6.286;2023-08-07T14:55:49;25.10;99.90
15143;DHT22;7672;50.834;6.286;2023-08-07T14:58:16;25.20;99.90
15143;DHT22;7672;50.834;6.286;2023-08-07T15:00:43;25.20;99.90
15143;DHT22;7672;50.834;6.286;2023-08-07T15:03:13;25.30;99.90
15143;DHT22;7672;50.834;6.286;2023-08-07T15:05:40;25.20;99.90
15143;DHT22;7672;50.834;6.286;2023-08-07T15:08:07;25.40;99.90
15143;DHT22;7672;50.834;6.286;2023-08-07T15:10:34;25.50;99.90
15143;DHT22;7672;50.834;6.286;2023-08-07T15:13:02;25.40;99.90
15143;DHT22;7672;50.834;6.286;2023-08-07T15:15:29;25.50;99.90
15143;DHT22;7672;50.834;6.286;2023-08-07T15:17:56;25.40;99.90
15143;DHT22;7672;50.834;6.286;2023-08-07T15:20:23;25.50;99.90
15143;DHT22;7672;50.834;6.286;2023-08-07T15:22:51;25.40;99.90
15143;DHT22;7672;50.834;6.286;2023-08-07T15:25:18;25.40;99.90
15143;DHT22;7672;50.834;6.286;2023-08-07T15:27:45;25.40;99.90
15143;DHT22;7672;50.834;6.286;2023-08-07T15:30:12;25.30;99.90
15143;DHT22;7672;50.834;6.286;2023-08-07T15:32:39;25.30;99.90
15143;DHT22;7672;50.834;6.286;2023-08-07T15:35:08;25.20;99.90
15143;DHT22;7672;50.834;6.286;2023-08-07T15:37:35;25.20;99.90
15143;DHT22;7672;50.834;6.286;2023-08-07T15:40:03;25.10;99.90
15143;DHT22;7672;50.834;6.286;2023-08-07T15:42:30;25.00;99.90
15143;DHT22;7672;50.834;6.286;2023-08-07T15:44:57;25.00;99.90
15143;DHT22;7672;50.834;6.286;2023-08-07T15:47:25;25.00;99.90
15143;DHT22;7672;50.834;6.286;2023-08-07T15:49:52;24.90;99.90
15143;DHT22;7672;50.834;6.286;2023-08-07T15:52:19;24.90;99.90
15143;DHT22;7672;50.834;6.286;2023-08-07T15:54:46;24.80;99.90
15143;DHT22;7672;50.834;6.286;2023-08-07T15:57:13;24.70;99.90
15143;DHT22;7672;50.834;6.286;2023-08-07T15:59:40;24.70;99.90
15143;DHT22;7672;50.834;6.286;2023-08-07T16:02:08;24.60;99.90
15143;DHT22;7672;50.834;6.286;2023-08-07T16:04:35;24.50;99.90
15143;DHT22;7672;50.834;6.286;2023-08-07T16:07:03;24.40;99.90
15143;DHT22;7672;50.834;6.286;2023-08-07T16:09:30;24.30;99.90
15143;DHT22;7672;50.834;6.286;2023-08-07T16:11:59;23.90;99.90
15143;DHT22;7672;50.834;6.286;2023-08-07T16:14:45;24.10;99.90
15143;DHT22;7672;50.834;6.286;2023-08-07T16:17:33;23.70;99.90